Time;durP1;ratioP1;P1;durP2;ratioP2;P2;SDS_P1;SDS_P2;PMS_P1;PMS_P2;Temp;Humidity;BMP_temperature;BMP_pressure;BME280_temperature;BME280_humidity;BME280_pressure;Samples;Min_cycle;Max_cycle;Signal;HPM_P1;HPM_P2
2022/10/10 00:01:34;;;;;;;5.83;3.17;;;18.80;69.00;;;;;;5068532;28;20248;-76
2022/10/10 00:04:03;;;;;;;9.47;2.97;;;18.80;69.00;;;;;;5067442;28;20198;-76
2022/10/10 00:06:31;;;;;;;6.30;3.53;;;18.80;68.70;;;;;;5068062;28;20222;-76
2022/10/10 00:09:00;;;;;;;6.23;3.07;;;18.70;68.40;;;;;;5068236;28;20209;-76
2022/10/10 00:11:30;;;;;;;6.43;3.17;;;18.70;68.30;;;;;;5065874;28;20210;-78
2022/10/10 00:13:59;;;;;;;9.60;3.70;;;18.70;68.30;;;;;;5064819;28;20222;-77
2022/10/10 00:16:27;;;;;;;4.87;2.80;;;18.70;68.20;;;;;;5067388;28;20226;-77
2022/10/10 00:18:56;;;;;;;5.43;2.70;;;18.70;67.60;;;;;;5067832;28;20655;-77
2022/10/10 00:21:24;;;;;;;4.97;2.90;;;18.60;67.20;;;;;;5067083;28;20279;-76
2022/10/10 00:23:52;;;;;;;5.37;2.90;;;18.70;67.20;;;;;;5073090;28;20277;-78
2022/10/10 00:26:21;;;;;;;4.63;2.83;;;18.60;67.20;;;;;;5068093;28;20255;-76
2022/10/10 00:28:50;;;;;;;7.47;2.80;;;18.60;67.20;;;;;;5068366;28;20264;-77
2022/10/10 00:31:19;;;;;;;9.60;2.67;;;18.60;66.90;;;;;;5063130;28;20217;-76
2022/10/10 00:33:47;;;;;;;3.97;2.40;;;18.60;66.60;;;;;;5068781;28;20224;-75
2022/10/10 00:36:15;;;;;;;5.10;2.67;;;18.60;66.40;;;;;;5069117;28;20257;-79
2022/10/10 00:38:43;;;;;;;3.80;1.93;;;18.60;66.20;;;;;;5069069;28;20226;-76
2022/10/10 00:41:12;;;;;;;4.43;2.27;;;18.60;66.20;;;;;;5072056;28;20254;-76
2022/10/10 00:43:40;;;;;;;7.23;2.17;;;18.60;66.30;;;;;;5065192;28;20244;-76
2022/10/10 00:46:10;;;;;;;4.50;2.10;;;18.60;66.00;;;;;;5068585;28;20277;-75
2022/10/10 00:48:41;;;;;;;6.90;2.27;;;18.60;65.90;;;;;;5069387;28;20194;-77
2022/10/10 00:51:13;;;;;;;5.53;2.43;;;18.50;65.70;;;;;;5070209;28;20226;-76
2022/10/10 00:53:44;;;;;;;3.90;1.80;;;18.60;65.80;;;;;;5072713;28;20693;-76
2022/10/10 00:56:14;;;;;;;4.93;2.15;;;18.60;65.80;;;;;;5066859;28;20821;-75
2022/10/10 00:58:46;;;;;;;2.57;1.53;;;18.60;65.70;;;;;;5071512;28;20229;-77
2022/10/10 01:01:16;;;;;;;5.30;2.00;;;18.60;65.50;;;;;;5071641;28;20187;-75
2022/10/10 01:03:44;;;;;;;4.80;1.77;;;18.60;65.50;;;;;;5067768;28;20222;-76
2022/10/10 01:06:13;;;;;;;4.53;1.97;;;18.60;65.50;;;;;;5068912;28;20194;-77
2022/10/10 01:08:42;;;;;;;5.17;2.30;;;18.60;65.30;;;;;;5068937;28;20325;-76
2022/10/10 01:11:28;;;;;;;3.43;2.00;;;18.50;65.20;;;;;;5066701;28;20249;-76
2022/10/10 01:14:08;;;;;;;5.50;2.07;;;18.50;64.90;;;;;;5068400;28;20263;-76
2022/10/10 01:16:44;;;;;;;4.00;2.20;;;18.50;64.90;;;;;;5061398;28;20244;-76
2022/10/10 01:19:33;;;;;;;5.23;2.20;;;18.50;65.00;;;;;;5070264;28;20193;-76
2022/10/10 01:22:13;;;;;;;2.60;1.97;;;18.40;65.10;;;;;;5070881;28;20283;-77
2022/10/10 01:24:58;;;;;;;2.63;1.93;;;18.40;65.20;;;;;;5066686;28;20255;-76
2022/10/10 01:27:34;;;;;;;3.60;2.27;;;18.40;65.30;;;;;;5063308;28;20281;-77
2022/10/10 01:30:07;;;;;;;4.93;1.67;;;18.40;65.20;;;;;;5070951;28;20224;-78
2022/10/10 01:32:40;;;;;;;4.67;2.07;;;18.40;65.50;;;;;;5068523;28;20268;-77
2022/10/10 01:35:28;;;;;;;5.83;1.90;;;18.30;65.50;;;;;;5073672;28;20226;-76
2022/10/10 01:38:05;;;;;;;5.13;2.50;;;18.40;65.60;;;;;;5067464;28;20198;-77
2022/10/10 01:40:43;;;;;;;5.23;2.13;;;18.30;65.80;;;;;;5067270;28;20221;-77
2022/10/10 01:43:12;;;;;;;6.10;1.83;;;18.30;65.80;;;;;;5065046;28;20742;-76
2022/10/10 01:45:46;;;;;;;5.73;2.10;;;18.30;66.20;;;;;;5068706;28;20218;-77
2022/10/10 01:48:15;;;;;;;3.43;1.93;;;18.30;66.20;;;;;;5068221;28;20218;-77
2022/10/10 01:51:03;;;;;;;5.93;2.30;;;18.30;66.60;;;;;;5066580;28;20194;-76
2022/10/10 01:53:41;;;;;;;4.40;2.17;;;18.30;66.60;;;;;;5069888;28;20225;-77
2022/10/10 01:56:18;;;;;;;2.73;1.80;;;18.20;66.60;;;;;;5066598;28;20641;-76
2022/10/10 01:59:04;;;;;;;4.77;2.27;;;18.20;66.60;;;;;;5069899;28;20678;-77
2022/10/10 02:01:41;;;;;;;4.13;2.03;;;18.20;66.80;;;;;;5069687;28;20600;-77
2022/10/10 02:04:16;;;;;;;4.57;2.37;;;18.20;66.80;;;;;;5070507;28;20222;-77
2022/10/10 02:06:49;;;;;;;5.43;2.43;;;18.20;67.10;;;;;;5071007;28;20217;-77
2022/10/10 02:09:24;;;;;;;3.70;1.80;;;18.20;67.20;;;;;;5067541;28;21181;-77
2022/10/10 02:11:54;;;;;;;4.93;2.07;;;18.20;67.60;;;;;;5068807;28;20694;-78
2022/10/10 02:14:25;;;;;;;5.80;2.20;;;18.10;68.00;;;;;;5068807;28;20248;-77
2022/10/10 02:16:57;;;;;;;7.20;2.40;;;18.10;68.00;;;;;;5071189;28;20207;-77
2022/10/10 02:19:27;;;;;;;3.93;2.27;;;18.10;68.10;;;;;;5069305;28;20222;-76
2022/10/10 02:21:56;;;;;;;6.97;2.43;;;18.10;68.60;;;;;;5066276;28;20355;-77
2022/10/10 02:24:25;;;;;;;3.70;2.10;;;18.00;68.50;;;;;;5071490;28;20611;-77
2022/10/10 02:26:56;;;;;;;7.43;2.23;;;18.10;68.80;;;;;;5071876;28;20269;-78
2022/10/10 02:29:28;;;;;;;5.77;2.20;;;18.10;68.70;;;;;;5058847;28;20186;-77
2022/10/10 02:32:08;;;;;;;5.43;2.30;;;18.10;68.60;;;;;;5068426;28;20194;-78
2022/10/10 02:34:38;;;;;;;4.93;2.07;;;18.00;68.80;;;;;;5069125;28;20194;-77
2022/10/10 02:37:12;;;;;;;4.07;2.00;;;18.00;68.80;;;;;;5071089;28;20207;-77
2022/10/10 02:39:44;;;;;;;4.17;2.17;;;18.00;68.80;;;;;;5069249;28;20217;-76
2022/10/10 02:42:15;;;;;;;7.97;2.20;;;17.90;68.90;;;;;;5069745;28;20225;-76
2022/10/10 02:44:44;;;;;;;3.43;1.90;;;17.90;68.90;;;;;;5065810;28;20198;-77
2022/10/10 02:47:14;;;;;;;3.83;2.00;;;17.90;68.90;;;;;;5067509;28;20194;-78
2022/10/10 02:49:43;;;;;;;5.23;1.97;;;17.90;69.10;;;;;;5061424;28;20264;-76
2022/10/10 02:52:14;;;;;;;4.97;2.20;;;17.90;69.10;;;;;;5067649;28;20513;-77
2022/10/10 02:54:43;;;;;;;6.83;2.30;;;17.80;69.40;;;;;;5070317;28;20276;-77
2022/10/10 02:57:11;;;;;;;4.43;2.40;;;17.80;69.50;;;;;;5069356;28;20626;-77
2022/10/10 02:59:39;;;;;;;7.50;2.03;;;17.80;69.40;;;;;;5066909;28;20190;-76
2022/10/10 03:02:08;;;;;;;3.47;1.77;;;17.80;69.50;;;;;;5070058;28;20214;-77
2022/10/10 03:04:37;;;;;;;3.10;1.83;;;17.80;69.30;;;;;;5068107;28;20284;-77
2022/10/10 03:07:06;;;;;;;2.63;1.87;;;17.80;69.20;;;;;;5070092;28;20314;-76
2022/10/10 03:09:34;;;;;;;5.33;2.00;;;17.80;69.20;;;;;;5063727;28;20237;-77
2022/10/10 03:12:02;;;;;;;3.83;1.97;;;17.80;69.10;;;;;;5067440;28;20225;-76
2022/10/10 03:14:31;;;;;;;4.07;2.03;;;17.80;69.10;;;;;;5067522;28;20265;-77
2022/10/10 03:16:59;;;;;;;5.27;2.40;;;17.80;68.90;;;;;;5069158;28;20252;-77
2022/10/10 03:19:27;;;;;;;2.83;1.90;;;17.70;68.80;;;;;;5062733;28;20190;-77
2022/10/10 03:21:57;;;;;;;4.13;1.83;;;17.80;68.60;;;;;;5069769;28;20252;-77
2022/10/10 03:24:26;;;;;;;4.77;2.00;;;17.80;68.60;;;;;;5061635;28;20701;-77
2022/10/10 03:26:54;;;;;;;4.37;2.10;;;17.70;68.50;;;;;;5068002;28;20209;-78
2022/10/10 03:29:22;;;;;;;3.53;1.77;;;17.70;68.60;;;;;;5064933;28;20716;-77
2022/10/10 03:31:51;;;;;;;4.93;1.90;;;17.70;68.50;;;;;;5069351;28;20191;-76
2022/10/10 03:34:19;;;;;;;4.07;1.90;;;17.70;68.30;;;;;;5065468;28;20202;-77
2022/10/10 03:36:47;;;;;;;6.00;1.97;;;17.70;67.70;;;;;;5064447;28;20343;-78
2022/10/10 03:39:17;;;;;;;5.03;1.93;;;17.70;67.70;;;;;;5066458;28;20222;-78
2022/10/10 03:41:45;;;;;;;4.27;1.77;;;17.70;67.30;;;;;;5068181;28;20198;-78
2022/10/10 03:44:15;;;;;;;8.10;2.20;;;17.70;67.50;;;;;;5065908;28;20547;-77
2022/10/10 03:46:43;;;;;;;8.97;1.80;;;17.60;67.00;;;;;;5067470;28;20636;-77
2022/10/10 03:49:12;;;;;;;5.10;2.00;;;17.60;66.70;;;;;;5067802;28;20467;-78
2022/10/10 03:51:40;;;;;;;4.80;1.67;;;17.60;66.60;;;;;;5065996;28;20202;-77
2022/10/10 03:54:10;;;;;;;4.93;1.90;;;17.60;66.60;;;;;;5069166;28;20202;-78
2022/10/10 03:56:40;;;;;;;5.63;1.77;;;17.60;66.60;;;;;;5067475;28;20639;-78
2022/10/10 03:59:08;;;;;;;4.03;1.53;;;17.50;66.50;;;;;;5068116;28;20194;-77
2022/10/10 04:01:36;;;;;;;3.47;1.73;;;17.50;66.30;;;;;;5069762;28;20286;-77
2022/10/10 04:04:05;;;;;;;7.90;1.87;;;17.50;66.30;;;;;;5063949;28;20194;-77
2022/10/10 04:06:33;;;;;;;3.50;1.73;;;17.40;66.00;;;;;;5060703;28;20252;-77
2022/10/10 04:09:01;;;;;;;4.57;1.50;;;17.40;66.10;;;;;;5069095;28;20609;-77
2022/10/10 04:11:29;;;;;;;6.13;1.90;;;17.40;65.80;;;;;;5063813;28;20244;-77
2022/10/10 04:13:59;;;;;;;3.50;1.53;;;17.40;65.70;;;;;;5063682;28;20702;-76
2022/10/10 04:16:27;;;;;;;4.63;1.60;;;17.30;65.30;;;;;;5063455;28;20216;-77
2022/10/10 04:18:57;;;;;;;3.07;1.60;;;17.30;65.50;;;;;;5065649;28;20427;-78
2022/10/10 04:21:25;;;;;;;3.27;1.60;;;17.30;65.70;;;;;;5061975;28;20222;-77
2022/10/10 04:23:53;;;;;;;4.23;1.50;;;17.30;65.50;;;;;;5067935;28;20574;-77
2022/10/10 04:26:22;;;;;;;5.07;1.60;;;17.30;65.70;;;;;;5069985;28;20191;-76
2022/10/10 04:28:50;;;;;;;5.30;1.70;;;17.30;65.70;;;;;;5065865;28;20290;-77
2022/10/10 04:31:20;;;;;;;3.07;2.00;;;17.30;65.40;;;;;;5062194;28;20279;-76
2022/10/10 04:33:48;;;;;;;3.37;1.57;;;17.30;65.50;;;;;;5065517;28;20222;-78
2022/10/10 04:36:16;;;;;;;4.80;1.73;;;17.20;65.40;;;;;;5068879;28;21693;-76
2022/10/10 04:38:45;;;;;;;1.60;1.27;;;17.20;65.20;;;;;;5065502;28;20661;-77
2022/10/10 04:41:13;;;;;;;2.67;1.50;;;17.20;65.00;;;;;;5063445;28;20211;-77
2022/10/10 04:43:41;;;;;;;4.87;1.70;;;17.20;65.10;;;;;;5067036;28;20194;-77
2022/10/10 04:46:10;;;;;;;5.60;1.90;;;17.10;65.10;;;;;;5064215;28;20222;-77
2022/10/10 04:48:39;;;;;;;5.60;1.40;;;17.10;65.10;;;;;;5062372;28;20218;-78
2022/10/10 04:51:09;;;;;;;3.47;1.80;;;17.10;65.20;;;;;;5066741;28;20577;-77
2022/10/10 04:53:37;;;;;;;4.67;1.73;;;17.10;65.00;;;;;;5061741;28;20229;-76
2022/10/10 04:56:06;;;;;;;3.37;1.47;;;17.10;65.00;;;;;;5071116;28;20259;-77
2022/10/10 04:58:34;;;;;;;3.30;1.30;;;17.10;65.00;;;;;;5066792;28;20242;-76
2022/10/10 05:01:03;;;;;;;6.10;1.50;;;17.10;64.90;;;;;;5064087;28;20281;-76
2022/10/10 05:03:31;;;;;;;3.57;1.67;;;17.10;65.40;;;;;;5068060;28;20198;-77
2022/10/10 05:06:01;;;;;;;4.97;1.63;;;17.10;64.70;;;;;;5066800;28;20198;-77
2022/10/10 05:08:29;;;;;;;5.57;1.90;;;17.10;64.80;;;;;;5067647;28;20186;-78
2022/10/10 05:10:57;;;;;;;2.83;1.47;;;17.00;64.40;;;;;;5070352;28;20620;-76
2022/10/10 05:13:25;;;;;;;5.23;1.60;;;17.00;64.40;;;;;;5070266;28;20237;-77
2022/10/10 05:15:54;;;;;;;3.97;1.53;;;17.10;64.50;;;;;;5067326;28;20262;-77
2022/10/10 05:18:22;;;;;;;2.97;1.50;;;17.10;64.30;;;;;;5071471;28;20222;-78
2022/10/10 05:20:50;;;;;;;2.30;1.30;;;17.10;64.40;;;;;;5063185;28;20722;-77
2022/10/10 05:23:20;;;;;;;4.70;1.43;;;17.10;64.70;;;;;;5063473;28;20206;-78
2022/10/10 05:25:50;;;;;;;7.47;1.60;;;17.10;64.70;;;;;;5067512;28;20216;-77
2022/10/10 05:28:18;;;;;;;2.70;1.30;;;17.10;64.50;;;;;;5069253;28;20194;-75
2022/10/10 05:30:46;;;;;;;2.53;1.33;;;17.10;64.50;;;;;;5070358;28;20541;-77
2022/10/10 05:33:15;;;;;;;3.53;1.80;;;17.10;64.20;;;;;;5067109;28;20230;-83
2022/10/10 05:35:43;;;;;;;2.17;1.40;;;17.10;64.30;;;;;;5070076;28;20199;-76
2022/10/10 05:38:12;;;;;;;1.90;1.23;;;17.10;64.30;;;;;;5070590;28;20214;-76
2022/10/10 05:40:42;;;;;;;3.80;1.67;;;17.20;64.50;;;;;;5065210;28;20566;-74
2022/10/10 05:43:10;;;;;;;5.30;1.73;;;17.20;64.70;;;;;;5067746;28;20221;-74
2022/10/10 05:45:38;;;;;;;4.57;2.10;;;17.20;64.50;;;;;;5063837;28;20198;-79
2022/10/10 05:48:07;;;;;;;8.53;1.60;;;17.20;64.50;;;;;;5068513;28;20202;-79
2022/10/10 05:50:38;;;;;;;3.00;1.70;;;17.20;64.40;;;;;;5067805;28;20222;-80
2022/10/10 05:53:07;;;;;;;5.50;1.30;;;17.10;64.20;;;;;;5062256;28;20305;-78
2022/10/10 05:55:35;;;;;;;6.87;2.33;;;17.20;64.40;;;;;;5071505;28;20627;-80
2022/10/10 05:58:12;;;;;;;3.33;1.60;;;17.20;64.40;;;;;;5069767;28;20251;-80
2022/10/10 06:00:41;;;;;;;2.73;1.50;;;17.20;64.50;;;;;;5062602;28;20222;-77
2022/10/10 06:03:12;;;;;;;3.20;1.73;;;17.20;64.30;;;;;;5065580;28;20263;-79
2022/10/10 06:05:41;;;;;;;3.97;1.50;;;17.30;64.30;;;;;;5072815;28;20190;-79
2022/10/10 06:08:09;;;;;;;5.17;1.30;;;17.30;64.50;;;;;;5071029;28;20273;-79
2022/10/10 06:10:41;;;;;;;8.10;1.80;;;17.30;64.50;;;;;;5065245;28;20696;-80
2022/10/10 06:13:11;;;;;;;5.20;1.70;;;17.40;64.30;;;;;;5068479;28;20264;-79
2022/10/10 06:15:40;;;;;;;4.30;1.53;;;17.40;64.40;;;;;;5070379;28;20659;-78
2022/10/10 06:18:08;;;;;;;3.93;1.60;;;17.40;64.20;;;;;;5072813;28;20257;-78
2022/10/10 06:20:37;;;;;;;4.43;1.40;;;17.40;63.90;;;;;;5067935;28;20232;-79
2022/10/10 06:23:07;;;;;;;7.97;1.60;;;17.40;64.10;;;;;;5071421;28;20202;-79
2022/10/10 06:25:36;;;;;;;6.83;1.43;;;17.40;64.40;;;;;;5071232;28;20563;-78
2022/10/10 06:28:11;;;;;;;4.80;2.03;;;17.40;64.20;;;;;;5069870;28;20187;-79
2022/10/10 06:30:43;;;;;;;3.57;1.40;;;17.50;64.10;;;;;;5072377;28;20190;-78
2022/10/10 06:33:12;;;;;;;4.93;1.27;;;17.50;64.10;;;;;;5065733;28;20194;-77
2022/10/10 06:35:41;;;;;;;5.40;1.20;;;17.50;63.50;;;;;;5068758;28;20285;-79
2022/10/10 06:38:11;;;;;;;2.17;1.30;;;17.50;63.50;;;;;;5067555;28;20240;-81
2022/10/10 06:40:39;;;;;;;3.73;1.10;;;17.50;63.50;;;;;;5066855;28;20241;-78
2022/10/10 06:43:11;;;;;;;5.20;1.50;;;17.50;63.50;;;;;;5065361;28;20198;-78
2022/10/10 06:45:41;;;;;;;4.13;1.30;;;17.60;63.80;;;;;;5070671;28;20248;-79
2022/10/10 06:48:10;;;;;;;4.07;1.37;;;17.50;63.50;;;;;;5066358;28;20222;-79
2022/10/10 06:50:38;;;;;;;3.63;1.43;;;17.60;63.90;;;;;;5056728;28;20950;-78
2022/10/10 06:53:07;;;;;;;2.57;1.33;;;17.60;63.80;;;;;;5064330;28;20207;-77
2022/10/10 06:55:35;;;;;;;4.40;1.63;;;17.60;63.90;;;;;;5067237;28;20662;-78
2022/10/10 06:58:04;;;;;;;4.53;1.40;;;17.60;63.80;;;;;;5066579;28;20245;-77
2022/10/10 07:00:36;;;;;;;3.50;1.40;;;17.70;63.70;;;;;;5068918;28;20716;-77
2022/10/10 07:03:04;;;;;;;5.77;1.70;;;17.70;63.60;;;;;;5061060;28;20222;-78
2022/10/10 07:05:33;;;;;;;5.13;1.50;;;17.70;63.20;;;;;;5065575;28;20237;-78
2022/10/10 07:08:01;;;;;;;5.97;1.10;;;17.70;63.00;;;;;;5062104;28;20206;-79
2022/10/10 07:10:30;;;;;;;4.67;1.40;;;17.80;63.20;;;;;;5061261;28;20658;-75
2022/10/10 07:12:58;;;;;;;2.90;1.13;;;17.80;63.50;;;;;;5065301;28;20202;-77
2022/10/10 07:15:26;;;;;;;3.43;1.30;;;17.80;63.30;;;;;;5068268;28;20257;-79
2022/10/10 07:18:00;;;;;;;3.17;1.43;;;17.90;63.00;;;;;;5069523;28;20206;-80
2022/10/10 07:20:28;;;;;;;5.13;1.30;;;17.90;63.00;;;;;;5060474;28;20553;-78
2022/10/10 07:22:56;;;;;;;7.17;1.40;;;17.90;62.80;;;;;;5068597;28;20263;-78
2022/10/10 07:25:25;;;;;;;4.37;1.10;;;17.90;62.20;;;;;;5066488;28;20195;-80
2022/10/10 07:28:14;;;;;;;5.47;1.20;;;17.90;61.70;;;;;;5066064;28;20230;-79
2022/10/10 07:30:44;;;;;;;4.70;1.20;;;17.90;62.00;;;;;;5064850;28;20302;-80
2022/10/10 07:33:15;;;;;;;2.20;1.23;;;18.00;62.20;;;;;;5068590;28;20248;-80
2022/10/10 07:35:52;;;;;;;3.77;1.27;;;18.00;62.30;;;;;;5066878;28;20194;-78
2022/10/10 07:38:20;;;;;;;2.43;1.23;;;18.10;62.40;;;;;;5068292;28;20198;-79
2022/10/10 07:40:48;;;;;;;3.17;1.03;;;18.10;61.40;;;;;;5060426;28;20230;-78
2022/10/10 07:43:17;;;;;;;2.20;1.10;;;18.20;61.60;;;;;;5065630;28;20605;-78
2022/10/10 07:45:45;;;;;;;2.30;1.13;;;18.20;61.00;;;;;;5067785;28;20202;-78
2022/10/10 07:48:15;;;;;;;4.87;1.60;;;18.20;60.50;;;;;;5070707;28;20202;-78
2022/10/10 07:50:44;;;;;;;2.53;1.10;;;18.20;60.50;;;;;;5062515;28;20226;-78
2022/10/10 07:53:12;;;;;;;1.67;1.10;;;18.20;60.60;;;;;;5066531;28;20237;-78
2022/10/10 07:55:41;;;;;;;3.83;1.20;;;18.30;60.70;;;;;;5066386;28;20199;-80
2022/10/10 07:58:10;;;;;;;3.37;1.17;;;18.30;60.80;;;;;;5068822;28;20229;-79
2022/10/10 08:00:40;;;;;;;2.07;1.27;;;18.40;60.80;;;;;;5068731;28;20217;-80
2022/10/10 08:03:10;;;;;;;4.87;1.10;;;18.50;60.70;;;;;;5069485;28;20194;-79
2022/10/10 08:05:45;;;;;;;3.57;1.10;;;18.60;60.60;;;;;;5067914;28;20826;-78
2022/10/10 08:08:14;;;;;;;3.53;1.27;;;18.60;60.50;;;;;;5066031;28;20252;-79
2022/10/10 08:10:43;;;;;;;2.97;1.23;;;18.60;60.00;;;;;;5065887;28;20437;-78
2022/10/10 08:13:17;;;;;;;7.43;1.50;;;18.60;59.90;;;;;;5063207;28;20518;-79
2022/10/10 08:15:51;;;;;;;6.83;1.33;;;18.60;59.90;;;;;;5067154;28;20222;-78
2022/10/10 08:18:19;;;;;;;4.10;1.40;;;18.60;60.00;;;;;;5067005;28;20213;-78
2022/10/10 08:20:58;;;;;;;4.07;1.10;;;18.60;59.70;;;;;;5065299;28;20933;-77
2022/10/10 08:23:27;;;;;;;2.77;1.30;;;18.60;59.40;;;;;;5067578;28;20190;-78
2022/10/10 08:25:58;;;;;;;4.37;1.63;;;18.60;59.30;;;;;;5066304;28;20198;-77
2022/10/10 08:28:26;;;;;;;2.57;1.20;;;18.70;59.40;;;;;;5066518;28;20198;-79
2022/10/10 08:30:55;;;;;;;3.77;1.20;;;18.70;59.30;;;;;;5066364;28;20198;-80
2022/10/10 08:33:26;;;;;;;4.27;1.10;;;18.80;59.60;;;;;;5066580;28;20195;-77
2022/10/10 08:35:55;;;;;;;6.63;1.10;;;18.80;59.30;;;;;;5065547;28;20230;-79
2022/10/10 08:38:24;;;;;;;3.43;1.10;;;18.80;58.90;;;;;;5069742;28;20243;-78
2022/10/10 08:40:56;;;;;;;1.60;1.17;;;18.90;58.60;;;;;;5065353;28;20249;-78
2022/10/10 08:43:33;;;;;;;2.33;1.20;;;19.00;59.10;;;;;;5068097;28;20724;-78
2022/10/10 08:46:10;;;;;;;1.60;0.90;;;19.00;58.60;;;;;;5071999;28;20263;-80
2022/10/10 08:48:40;;;;;;;6.27;1.43;;;19.10;58.60;;;;;;5072534;28;20202;-80
2022/10/10 08:51:16;;;;;;;2.70;1.30;;;19.30;58.70;;;;;;5069820;28;20925;-78
2022/10/10 08:53:46;;;;;;;6.57;1.77;;;19.40;58.80;;;;;;5070627;28;20197;-81
2022/10/10 08:56:20;;;;;;;6.03;1.20;;;19.50;59.00;;;;;;5067939;28;20211;-84
2022/10/10 08:58:54;;;;;;;3.93;1.30;;;19.50;58.40;;;;;;5070640;28;20248;-78
2022/10/10 09:01:24;;;;;;;3.40;1.20;;;19.50;58.10;;;;;;5067874;28;20220;-79
2022/10/10 09:03:57;;;;;;;2.20;1.10;;;19.60;58.10;;;;;;5070537;28;20289;-78
2022/10/10 09:06:50;;;;;;;2.37;1.23;;;19.60;57.70;;;;;;5066733;28;20629;-78
2022/10/10 09:09:26;;;;;;;3.27;1.30;;;19.50;57.50;;;;;;5070105;28;20226;-79
2022/10/10 09:12:04;;;;;;;3.00;1.20;;;19.50;57.80;;;;;;5066880;28;20275;-79
2022/10/10 09:14:39;;;;;;;8.13;1.13;;;19.50;57.80;;;;;;5065227;28;20702;-80
2022/10/10 09:17:23;;;;;;;4.20;1.60;;;19.50;57.70;;;;;;5069015;28;20190;-78
2022/10/10 09:20:02;;;;;;;2.57;1.40;;;19.50;57.60;;;;;;5070797;28;20259;-78
2022/10/10 09:22:35;;;;;;;4.23;1.00;;;19.50;57.40;;;;;;5071326;28;20250;-81
2022/10/10 09:25:14;;;;;;;2.10;1.00;;;19.50;57.40;;;;;;5071092;28;20244;-78
2022/10/10 09:27:52;;;;;;;8.23;1.40;;;19.50;57.30;;;;;;5070329;28;20285;-77
2022/10/10 09:30:21;;;;;;;8.00;1.33;;;19.50;57.50;;;;;;5070320;28;20609;-81
2022/10/10 09:32:57;;;;;;;5.33;1.20;;;19.60;57.60;;;;;;5070018;28;21068;-80
2022/10/10 09:35:28;;;;;;;4.00;1.53;;;19.60;57.40;;;;;;5068834;28;20190;-77
2022/10/10 09:38:03;;;;;;;2.07;1.20;;;19.60;57.20;;;;;;5068319;28;20229;-77
2022/10/10 09:40:36;;;;;;;3.20;1.40;;;19.60;57.60;;;;;;5070187;28;20295;-78
2022/10/10 09:43:13;;;;;;;2.47;1.03;;;19.70;57.00;;;;;;5074853;28;20252;-78
2022/10/10 09:45:47;;;;;;;2.97;1.27;;;19.70;57.00;;;;;;5072860;28;20229;-78
2022/10/10 09:48:15;;;;;;;2.93;1.10;;;19.80;57.10;;;;;;5069118;28;20244;-81
2022/10/10 09:50:43;;;;;;;3.30;1.40;;;19.70;56.80;;;;;;5070057;28;20363;-78
2022/10/10 09:53:16;;;;;;;5.13;1.13;;;19.80;57.00;;;;;;5071807;28;20230;-77
2022/10/10 09:55:46;;;;;;;5.83;1.27;;;19.80;56.90;;;;;;5066561;28;20218;-76
2022/10/10 09:58:20;;;;;;;3.07;1.17;;;19.90;57.00;;;;;;5068777;28;20587;-77
2022/10/10 10:00:49;;;;;;;2.53;1.20;;;19.90;56.70;;;;;;5073774;28;20239;-76
2022/10/10 10:03:19;;;;;;;1.93;1.10;;;20.00;56.40;;;;;;5067540;28;20623;-77
2022/10/10 10:05:56;;;;;;;6.97;1.50;;;20.00;56.30;;;;;;5071125;28;20233;-77
2022/10/10 10:08:31;;;;;;;1.80;1.13;;;20.10;56.30;;;;;;5068511;28;20288;-76
2022/10/10 10:11:00;;;;;;;4.20;1.50;;;20.10;56.30;;;;;;5068955;28;20457;-78
2022/10/10 10:13:32;;;;;;;4.43;1.60;;;20.10;56.20;;;;;;5070065;28;20643;-77
2022/10/10 10:16:05;;;;;;;2.90;1.40;;;20.20;56.20;;;;;;5070031;28;20291;-77
2022/10/10 10:18:39;;;;;;;4.78;1.70;;;20.20;56.40;;;;;;5072067;28;20439;-77
2022/10/10 10:21:19;;;;;;;4.73;1.80;;;20.40;56.00;;;;;;5069982;28;20201;-79
2022/10/10 10:23:57;;;;;;;6.55;1.70;;;20.40;56.10;;;;;;5068340;28;20678;-80
2022/10/10 10:26:29;;;;;;;2.08;1.30;;;20.40;55.80;;;;;;5072453;28;20236;-78
2022/10/10 10:28:58;;;;;;;4.77;1.30;;;20.50;56.00;;;;;;5070699;28;20260;-79
2022/10/10 10:31:53;;;;;;;5.23;1.50;;;20.50;55.70;;;;;;5065581;28;20627;-78
2022/10/10 10:34:44;;;;;;;4.73;1.60;;;20.60;55.70;;;;;;5062276;28;20647;-79
2022/10/10 10:37:19;;;;;;;5.85;1.80;;;20.70;55.50;;;;;;5052731;28;20194;-81
2022/10/10 10:40:14;;;;;;;4.63;1.23;;;20.70;55.40;;;;;;5069972;28;20337;-78
2022/10/10 10:43:06;;;;;;;3.78;1.33;;;20.70;55.20;;;;;;5062925;28;20194;-79
2022/10/10 10:45:42;;;;;;;4.45;1.33;;;20.70;55.40;;;;;;5063032;28;20226;-79
2022/10/10 10:48:21;;;;;;;3.83;2.27;;;20.70;55.20;;;;;;5064960;28;20239;-80
2022/10/10 10:50:54;;;;;;;12.63;1.70;;;20.80;55.40;;;;;;5067456;28;20187;-79
2022/10/10 10:53:28;;;;;;;4.50;1.25;;;20.80;55.30;;;;;;5061641;28;20198;-79
2022/10/10 10:56:08;;;;;;;2.92;1.55;;;20.80;55.30;;;;;;5071561;28;20647;-80
2022/10/10 10:58:59;;;;;;;3.37;1.80;;;20.90;55.00;;;;;;5066490;28;20247;-80
2022/10/10 11:01:54;;;;;;;2.88;1.55;;;20.90;55.10;;;;;;5069363;28;20332;-79
2022/10/10 11:04:52;;;;;;;3.35;1.60;;;20.90;54.70;;;;;;5068333;28;20190;-79
2022/10/10 11:07:52;;;;;;;6.45;1.90;;;21.00;55.00;;;;;;5063265;28;20277;-79
2022/10/10 11:10:27;;;;;;;7.32;1.60;;;21.00;54.90;;;;;;5065235;28;20272;-79
2022/10/10 11:13:03;;;;;;;3.95;1.45;;;21.10;55.00;;;;;;5066959;28;20198;-78
2022/10/10 11:15:37;;;;;;;6.88;1.30;;;21.10;54.60;;;;;;5058683;28;20644;-77
2022/10/10 11:18:31;;;;;;;4.22;1.85;;;21.10;54.40;;;;;;5066803;28;20216;-78
2022/10/10 11:21:05;;;;;;;3.13;1.58;;;21.10;54.30;;;;;;5063663;28;20750;-78
2022/10/10 11:23:38;;;;;;;6.25;1.60;;;21.20;54.40;;;;;;5066949;28;20194;-78
2022/10/10 11:26:10;;;;;;;4.15;1.60;;;21.20;54.70;;;;;;5065582;28;20608;-77
2022/10/10 11:28:45;;;;;;;3.85;1.75;;;21.20;54.50;;;;;;5063413;28;20222;-78
2022/10/10 11:31:23;;;;;;;4.00;1.48;;;21.30;54.50;;;;;;5067406;28;20182;-78
2022/10/10 11:33:57;;;;;;;2.47;1.20;;;21.30;54.20;;;;;;5067397;28;20299;-79
2022/10/10 11:36:30;;;;;;;4.22;1.55;;;21.30;54.00;;;;;;5068311;28;20247;-77
2022/10/10 11:39:05;;;;;;;3.95;1.70;;;21.40;54.40;;;;;;5064659;28;20202;-79
2022/10/10 11:41:37;;;;;;;3.92;1.80;;;21.40;54.40;;;;;;5065467;28;20731;-79
2022/10/10 11:44:13;;;;;;;4.57;1.35;;;21.50;54.20;;;;;;5070755;28;20221;-79
2022/10/10 11:46:46;;;;;;;2.65;1.48;;;21.50;54.30;;;;;;5063097;28;20244;-80
2022/10/10 11:49:21;;;;;;;4.20;1.38;;;21.60;54.30;;;;;;5063402;28;20198;-89
2022/10/10 11:52:33;;;;;;;4.10;1.60;;;21.60;54.10;;;;;;5062614;28;20532;-80
2022/10/10 11:55:08;;;;;;;6.57;1.60;;;21.60;54.00;;;;;;5062245;28;20234;-79
2022/10/10 11:57:41;;;;;;;3.95;1.67;;;21.70;53.80;;;;;;5066496;28;20239;-79
2022/10/10 12:00:14;;;;;;;3.17;1.75;;;21.70;53.80;;;;;;5067768;28;20712;-81
2022/10/10 12:02:44;;;;;;;2.97;1.80;;;21.70;53.60;;;;;;5068744;28;20297;-80
2022/10/10 12:05:22;;;;;;;3.17;1.48;;;21.70;53.10;;;;;;5059537;28;20241;-79
2022/10/10 12:08:07;;;;;;;5.00;1.70;;;21.70;53.40;;;;;;5066396;28;20240;-80
2022/10/10 12:10:42;;;;;;;4.55;1.58;;;21.80;53.50;;;;;;5066176;28;20195;-79
2022/10/10 12:13:25;;;;;;;5.57;1.83;;;21.80;53.70;;;;;;5067400;28;20222;-79
2022/10/10 12:16:00;;;;;;;3.33;1.55;;;21.80;53.70;;;;;;5064076;28;20818;-78
2022/10/10 12:18:32;;;;;;;5.95;1.67;;;21.80;53.80;;;;;;5067185;28;20197;-79
2022/10/10 12:21:06;;;;;;;5.03;2.00;;;21.80;53.50;;;;;;5065616;28;20305;-80
2022/10/10 12:23:35;;;;;;;6.35;1.50;;;21.70;53.60;;;;;;5065302;28;20190;-79
2022/10/10 12:26:04;;;;;;;7.30;1.80;;;21.70;53.80;;;;;;5062013;28;20869;-80
2022/10/10 12:28:56;;;;;;;3.22;1.50;;;21.80;53.80;;;;;;5064787;28;20198;-79
2022/10/10 12:31:31;;;;;;;6.32;2.10;;;21.80;53.80;;;;;;5066189;28;20187;-79
2022/10/10 12:34:04;;;;;;;9.15;1.73;;;21.80;54.00;;;;;;5066145;28;20320;-77
2022/10/10 12:36:57;;;;;;;2.00;1.42;;;21.90;54.00;;;;;;5062658;28;20195;-79
2022/10/10 12:39:36;;;;;;;4.75;1.67;;;21.90;53.80;;;;;;5069496;28;20655;-79
2022/10/10 12:42:28;;;;;;;5.35;1.60;;;21.90;53.90;;;;;;5068687;28;20381;-78
2022/10/10 12:44:56;;;;;;;4.05;1.42;;;22.00;53.80;;;;;;5063529;28;20199;-78
2022/10/10 12:47:34;;;;;;;8.32;1.70;;;21.90;53.60;;;;;;5064486;28;20194;-78
2022/10/10 12:50:25;;;;;;;3.85;1.73;;;21.90;53.50;;;;;;5067669;28;20201;-78
2022/10/10 12:52:57;;;;;;;2.65;1.60;;;22.00;53.70;;;;;;5066949;28;20233;-79
2022/10/10 12:55:31;;;;;;;4.50;1.80;;;22.00;53.70;;;;;;5067898;28;20276;-79
2022/10/10 12:58:02;;;;;;;3.15;1.40;;;22.10;53.80;;;;;;5062763;28;20205;-78
2022/10/10 13:00:39;;;;;;;5.50;1.67;;;22.10;53.70;;;;;;5061384;28;20190;-79
2022/10/10 13:03:17;;;;;;;5.75;2.00;;;22.20;53.80;;;;;;5066503;28;20237;-77
2022/10/10 13:05:47;;;;;;;6.60;2.00;;;22.20;53.30;;;;;;5062145;28;20214;-78
2022/10/10 13:08:18;;;;;;;2.85;1.70;;;22.20;53.10;;;;;;5063189;28;20666;-81
2022/10/10 13:11:04;;;;;;;3.75;1.50;;;22.20;53.20;;;;;;5067583;28;21208;-79
2022/10/10 13:13:33;;;;;;;5.63;2.13;;;22.20;53.20;;;;;;5064608;28;20186;-78
2022/10/10 13:16:07;;;;;;;4.05;1.75;;;22.20;53.30;;;;;;5063656;28;20634;-80